createdAt,value
2017-03-29T00:00:34.674Z,46.25
2017-03-29T00:01:44.589Z,46.72
2017-03-29T00:02:54.543Z,46.63
2017-03-29T00:04:04.136Z,46.53
2017-03-29T00:05:13.785Z,46.72
2017-03-29T00:06:23.374Z,46.63
2017-03-29T00:07:33.123Z,46.92
2017-03-29T00:08:43.018Z,46.92
2017-03-29T00:09:52.718Z,46.92
2017-03-29T00:11:02.907Z,47.01
2017-03-29T00:12:12.846Z,47.39
2017-03-29T00:13:22.758Z,47.11
2017-03-29T00:14:32.677Z,46.82
2017-03-29T00:15:42.278Z,47.01
2017-03-29T00:16:52.536Z,46.82
2017-03-29T00:18:02.134Z,47.58
2017-03-29T00:19:11.455Z,47.11
2017-03-29T00:20:21.054Z,47.49
2017-03-29T00:21:31.186Z,47.49
2017-03-29T00:22:41.344Z,47.3
2017-03-29T00:23:50.957Z,47.39
2017-03-29T00:25:00.891Z,47.49
2017-03-29T00:26:10.844Z,47.58
2017-03-29T00:27:20.906Z,47.87
2017-03-29T00:28:30.782Z,47.68
2017-03-29T00:29:40.471Z,47.3
2017-03-29T00:30:50.069Z,47.39
2017-03-29T00:31:59.662Z,47.39
2017-03-29T00:33:09.248Z,47.68
2017-03-29T00:34:19.110Z,47.49
2017-03-29T00:35:29.108Z,48.25
2017-03-29T00:36:38.399Z,48.25
2017-03-29T00:37:48.022Z,48.44
2017-03-29T00:38:57.922Z,48.16
2017-03-29T00:40:08.088Z,48.07
2017-03-29T00:41:17.670Z,48.16
2017-03-29T00:42:27.596Z,48.25
2017-03-29T00:43:37.186Z,48.64
2017-03-29T00:44:47.159Z,48.35
2017-03-29T00:45:57.329Z,48.73
2017-03-29T00:47:06.713Z,48.64
2017-03-29T00:48:16.664Z,48.73
2017-03-29T00:49:26.267Z,48.73
2017-03-29T00:50:35.869Z,48.83
2017-03-29T00:51:45.847Z,48.93
2017-03-29T00:52:55.836Z,49.02
2017-03-29T00:54:05.412Z,49.21
2017-03-29T00:55:15.007Z,49.69
2017-03-29T00:56:24.926Z,48.9
2017-03-29T00:57:35.150Z,48.93
2017-03-29T00:58:44.731Z,48.83
2017-03-29T00:59:54.382Z,48.93
2017-03-29T01:01:03.983Z,49.02
2017-03-29T01:02:13.565Z,48.54
2017-03-29T01:03:23.424Z,48.64
2017-03-29T01:04:32.955Z,48.83
2017-03-29T01:05:42.539Z,48.9
2017-03-29T01:06:52.248Z,48.9
2017-03-29T01:08:01.871Z,49.09
2017-03-29T01:09:43.880Z,48.71
2017-03-29T01:10:53.824Z,48.99
2017-03-29T01:12:03.760Z,49.09
2017-03-29T01:13:13.355Z,49.02
2017-03-29T01:14:22.672Z,49.18
2017-03-29T01:15:32.904Z,49.18
2017-03-29T01:16:42.835Z,49.47
2017-03-29T01:17:52.431Z,49.66
2017-03-29T01:19:02.509Z,49.18
2017-03-29T01:20:12.145Z,49.38
2017-03-29T01:21:22.439Z,49.18
2017-03-29T01:22:32.451Z,48.99
2017-03-29T01:23:42.494Z,49.09
2017-03-29T01:24:51.439Z,48.99
2017-03-29T01:26:01.060Z,49.18
2017-03-29T01:27:11.249Z,49.47
2017-03-29T01:28:20.836Z,49.38
2017-03-29T01:29:30.485Z,49.47
2017-03-29T01:30:40.129Z,49.38
2017-03-29T01:31:50.105Z,49.18
2017-03-29T01:33:00.287Z,49.09
2017-03-29T01:34:09.912Z,48.99
2017-03-29T01:35:19.963Z,49.18
2017-03-29T01:36:29.957Z,49.66
2017-03-29T01:37:39.916Z,49.76
2017-03-29T01:38:50.118Z,49.76
2017-03-29T01:39:59.746Z,50.14
2017-03-29T01:41:09.752Z,50.04
2017-03-29T01:42:19.660Z,50.14
2017-03-29T01:43:29.576Z,50.04
2017-03-29T01:44:39.757Z,50.14
2017-03-29T01:45:49.860Z,50.04
2017-03-29T01:46:59.512Z,49.95
2017-03-29T01:48:09.505Z,50.24
2017-03-29T01:49:19.092Z,50.33
2017-03-29T01:50:29.252Z,50.14
2017-03-29T01:51:39.283Z,49.76
2017-03-29T01:52:49.178Z,50.04
2017-03-29T01:53:59.192Z,50.24
2017-03-29T01:55:09.140Z,50.04
2017-03-29T01:56:18.983Z,49.76
2017-03-29T01:57:28.917Z,49.85
2017-03-29T01:58:38.890Z,50.24
2017-03-29T01:59:49.026Z,49.85
2017-03-29T02:00:58.951Z,50.04
2017-03-29T02:02:08.809Z,50.14
2017-03-29T02:03:18.839Z,50.14
2017-03-29T02:04:28.816Z,50.14
2017-03-29T02:05:37.845Z,50.14
2017-03-29T02:06:47.430Z,50.33
2017-03-29T02:07:57.623Z,50.14
2017-03-29T02:09:07.586Z,50.71
2017-03-29T02:10:17.482Z,50.81
2017-03-29T02:11:27.508Z,50.49
2017-03-29T02:12:37.262Z,50.71
2017-03-29T02:13:46.857Z,50.59
2017-03-29T02:14:56.478Z,50.69
2017-03-29T02:16:06.063Z,50.69
2017-03-29T02:17:15.709Z,50.59
2017-03-29T02:18:25.823Z,51.17
2017-03-29T02:19:35.694Z,50.78
2017-03-29T02:20:45.335Z,51.54
2017-03-29T02:21:55.275Z,51.35
2017-03-29T02:23:04.871Z,51.07
2017-03-29T02:24:14.802Z,51.07
2017-03-29T02:25:24.952Z,51.54
2017-03-29T02:26:34.878Z,51.07
2017-03-29T02:27:44.923Z,51.26
2017-03-29T02:28:54.522Z,51.17
2017-03-29T02:30:04.164Z,51.26
2017-03-29T02:31:14.351Z,51.26
2017-03-29T02:32:23.646Z,51.17
2017-03-29T02:33:33.233Z,51.93
2017-03-29T02:34:42.821Z,51.45
2017-03-29T02:35:52.450Z,51.26
2017-03-29T02:37:02.501Z,51.26
2017-03-29T02:38:12.439Z,51.35
2017-03-29T02:39:22.150Z,51.17
2017-03-29T02:40:31.889Z,51.54
2017-03-29T02:41:41.476Z,51.35
2017-03-29T02:42:51.040Z,51.35
2017-03-29T02:44:01.004Z,51.35
2017-03-29T02:45:11.045Z,51.26
2017-03-29T02:46:20.714Z,51.54
2017-03-29T02:47:30.678Z,51.26
2017-03-29T02:48:40.233Z,51.35
2017-03-29T02:49:49.524Z,51.17
2017-03-29T02:50:59.151Z,51.17
2017-03-29T02:52:09.101Z,51.35
2017-03-29T02:53:18.744Z,51.26
2017-03-29T02:54:28.684Z,51.17
2017-03-29T02:55:38.674Z,51.26
2017-03-29T02:56:48.294Z,51.26
2017-03-29T02:57:57.562Z,51.26
2017-03-29T02:59:07.540Z,50.98
2017-03-29T03:00:17.796Z,51.26
2017-03-29T03:01:27.734Z,51.26
2017-03-29T03:02:37.667Z,51.17
2017-03-29T03:03:47.700Z,51.35
2017-03-29T03:04:56.994Z,51.26
2017-03-29T03:06:06.509Z,51.26
2017-03-29T03:07:16.433Z,51.26
2017-03-29T03:08:25.711Z,51.26
2017-03-29T03:09:35.657Z,51.17
2017-03-29T03:10:45.558Z,51.17
2017-03-29T03:11:55.750Z,51.35
2017-03-29T03:13:05.364Z,51.17
2017-03-29T03:14:15.269Z,51.26
2017-03-29T03:15:24.861Z,51.26
2017-03-29T03:16:34.779Z,50.98
2017-03-29T03:17:44.351Z,51.35
2017-03-29T03:18:54.291Z,51.35
2017-03-29T03:20:03.558Z,50.88
2017-03-29T03:21:13.474Z,50.78
2017-03-29T03:22:23.118Z,51.07
2017-03-29T03:23:32.963Z,51.17
2017-03-29T03:24:42.867Z,51.26
2017-03-29T03:25:52.882Z,51.17
2017-03-29T03:27:02.816Z,51.17
2017-03-29T03:28:12.729Z,51.07
2017-03-29T03:29:23.075Z,50.98
2017-03-29T03:30:32.694Z,50.98
2017-03-29T03:31:42.746Z,51.07
2017-03-29T03:32:52.655Z,50.78
2017-03-29T03:34:02.619Z,50.69
2017-03-29T03:35:12.696Z,50.69
2017-03-29T03:36:22.642Z,50.69
2017-03-29T03:37:32.585Z,50.59
2017-03-29T03:38:42.564Z,50.69
2017-03-29T03:39:52.474Z,50.49
2017-03-29T03:41:02.765Z,50.21
2017-03-29T03:42:12.362Z,50.02
2017-03-29T03:43:22.287Z,50.21
2017-03-29T03:44:32.294Z,50.12
2017-03-29T03:45:42.187Z,49.93
2017-03-29T03:46:52.032Z,49.83
2017-03-29T03:48:02.010Z,49.93
2017-03-29T03:49:11.931Z,49.93
2017-03-29T03:50:21.566Z,49.66
2017-03-29T03:51:31.221Z,49.66
2017-03-29T03:52:41.169Z,49.38
2017-03-29T03:53:50.454Z,49.35
2017-03-29T03:55:00.087Z,49.47
2017-03-29T03:56:10.098Z,49.35
2017-03-29T03:57:19.758Z,49.18
2017-03-29T03:58:29.604Z,48.9
2017-03-29T03:59:39.531Z,49.47
2017-03-29T04:00:49.444Z,49.47
2017-03-29T04:01:59.032Z,49.38
2017-03-29T04:03:08.633Z,49.18
2017-03-29T04:04:18.848Z,49.47
2017-03-29T04:05:28.465Z,49.76
2017-03-29T04:06:38.417Z,49.76
2017-03-29T04:07:48.445Z,49.95
2017-03-29T04:08:58.120Z,50.14
2017-03-29T04:10:07.967Z,50.24
2017-03-29T04:11:17.877Z,49.95
2017-03-29T04:12:27.790Z,49.76
2017-03-29T04:13:37.708Z,50.62
2017-03-29T04:14:47.615Z,50.81
2017-03-29T04:15:57.469Z,50.62
2017-03-29T04:17:07.163Z,50.43
2017-03-29T04:18:16.738Z,50.62
2017-03-29T04:19:26.319Z,50.81
2017-03-29T04:20:36.254Z,50.9
2017-03-29T04:21:46.500Z,51.09
2017-03-29T04:22:55.791Z,51.19
2017-03-29T04:24:05.073Z,51.76
2017-03-29T04:25:14.997Z,51.38
2017-03-29T04:26:24.616Z,51.19
2017-03-29T04:27:34.798Z,51.29
2017-03-29T04:28:44.934Z,51.29
2017-03-29T04:29:54.547Z,51.86
2017-03-29T04:31:04.476Z,52.03
2017-03-29T04:32:14.086Z,52.05
2017-03-29T04:33:23.366Z,52.15
2017-03-29T04:34:33.314Z,52.05
2017-03-29T04:35:43.260Z,52.34
2017-03-29T04:36:53.382Z,52.12
2017-03-29T04:38:03.358Z,51.93
2017-03-29T04:39:13.214Z,52.12
2017-03-29T04:40:23.238Z,52.59
2017-03-29T04:41:32.824Z,52.5
2017-03-29T04:42:42.818Z,52.79
2017-03-29T04:43:52.744Z,52.69
2017-03-29T04:45:02.990Z,52.98
2017-03-29T04:46:12.830Z,52.98
2017-03-29T04:47:22.721Z,53.17
2017-03-29T04:48:32.698Z,53.93
2017-03-29T04:49:42.742Z,54.03
2017-03-29T04:50:52.600Z,54.13
2017-03-29T04:52:02.191Z,54.13
2017-03-29T04:53:12.095Z,54.22
2017-03-29T04:54:22.078Z,54.13
2017-03-29T04:55:31.979Z,53.84
2017-03-29T04:56:42.130Z,54.13
2017-03-29T04:57:51.820Z,54.32
2017-03-29T04:59:01.740Z,54.22
2017-03-29T05:00:11.646Z,54.7
2017-03-29T05:01:21.236Z,54.5
2017-03-29T05:02:30.839Z,54.29
2017-03-29T05:03:40.437Z,54.67
2017-03-29T05:04:50.081Z,55.05
2017-03-29T05:05:59.992Z,54.67
2017-03-29T05:07:09.895Z,54.48
2017-03-29T05:08:20.189Z,54.57
2017-03-29T05:09:29.775Z,54.48
2017-03-29T05:10:39.716Z,54.86
2017-03-29T05:11:49.355Z,54.96
2017-03-29T05:12:58.969Z,55.18
2017-03-29T05:14:09.159Z,54.48
2017-03-29T05:15:18.951Z,54.77
2017-03-29T05:16:28.884Z,55.05
2017-03-29T05:17:38.867Z,54.67
2017-03-29T05:18:48.787Z,54.77
2017-03-29T05:19:58.673Z,55.15
2017-03-29T05:21:08.583Z,55.24
2017-03-29T05:22:17.864Z,55.15
2017-03-29T05:23:27.461Z,55.24
2017-03-29T05:24:36.740Z,56.1
2017-03-29T05:25:46.260Z,56.2
2017-03-29T05:26:56.194Z,56.67
2017-03-29T05:28:05.913Z,56.29
2017-03-29T05:29:15.859Z,56.1
2017-03-29T05:30:25.790Z,56.2
2017-03-29T05:31:35.993Z,55.82
2017-03-29T05:32:45.923Z,56.2
2017-03-29T05:33:55.866Z,56.67
2017-03-29T05:35:05.990Z,56.48
2017-03-29T05:36:15.957Z,56.48
2017-03-29T05:37:25.971Z,56.58
2017-03-29T05:38:35.681Z,56.96
2017-03-29T05:39:45.252Z,56.48
2017-03-29T05:40:55.208Z,56.48
2017-03-29T05:42:04.801Z,56.38
2017-03-29T05:43:14.763Z,56.67
2017-03-29T05:44:24.731Z,57.06
2017-03-29T05:45:34.328Z,56.96
2017-03-29T05:46:44.273Z,56.96
2017-03-29T05:47:53.981Z,56.67
2017-03-29T05:49:04.184Z,57.15
2017-03-29T05:50:14.087Z,56.77
2017-03-29T05:51:23.689Z,57.63
2017-03-29T05:52:33.597Z,57.75
2017-03-29T05:53:43.501Z,57.06
2017-03-29T05:54:53.669Z,57.09
2017-03-29T05:56:03.635Z,56.99
2017-03-29T05:57:13.661Z,56.8
2017-03-29T05:58:22.947Z,56.8
2017-03-29T05:59:32.922Z,56.8
2017-03-29T06:00:42.827Z,57.09
2017-03-29T06:01:52.775Z,56.8
2017-03-29T06:03:02.670Z,56.7
2017-03-29T06:04:11.625Z,56.89
2017-03-29T06:05:21.564Z,57.18
2017-03-29T06:06:31.401Z,57.09
2017-03-29T06:07:40.990Z,57.18
2017-03-29T06:08:51.030Z,56.8
2017-03-29T06:10:00.623Z,57.18
2017-03-29T06:11:10.556Z,57.21
2017-03-29T06:12:20.424Z,56.82
2017-03-29T06:13:30.553Z,57.21
2017-03-29T06:14:40.146Z,57.11
2017-03-29T06:15:50.191Z,56.82
2017-03-29T06:16:59.462Z,56.63
2017-03-29T06:18:09.341Z,56.82
2017-03-29T06:19:19.236Z,56.16
2017-03-29T06:20:28.946Z,55.96
2017-03-29T06:21:38.576Z,56.25
2017-03-29T06:22:48.489Z,55.9
2017-03-29T06:23:58.737Z,55.9
2017-03-29T06:25:08.318Z,55.42
2017-03-29T06:26:18.257Z,55.52
2017-03-29T06:27:28.196Z,55.9
2017-03-29T06:28:38.237Z,55.52
2017-03-29T06:29:48.453Z,55.32
2017-03-29T06:30:58.358Z,55.04
2017-03-29T06:32:08.349Z,55.13
2017-03-29T06:33:18.356Z,55.13
2017-03-29T06:34:28.279Z,55.23
2017-03-29T06:35:38.586Z,55.13
2017-03-29T06:36:47.865Z,55.52
2017-03-29T06:37:57.466Z,55.23
2017-03-29T06:39:07.061Z,55.13
2017-03-29T06:40:16.684Z,55.13
2017-03-29T06:41:26.882Z,55.13
2017-03-29T06:42:36.790Z,55.71
2017-03-29T06:43:46.760Z,55.52
2017-03-29T06:44:56.358Z,55.52
2017-03-29T06:46:05.958Z,55.61
2017-03-29T06:47:16.164Z,55.32
2017-03-29T06:48:25.872Z,55.32
2017-03-29T06:49:35.774Z,55.13
2017-03-29T06:50:45.378Z,55.61
2017-03-29T06:51:54.959Z,55.9
2017-03-29T06:53:05.209Z,56.18
2017-03-29T06:54:15.140Z,55.99
2017-03-29T06:55:25.090Z,56.18
2017-03-29T06:56:34.997Z,56.38
2017-03-29T06:57:44.657Z,56.38
2017-03-29T06:58:54.819Z,56.57
2017-03-29T07:00:04.404Z,55.8
2017-03-29T07:01:14.465Z,55.71
2017-03-29T07:02:24.129Z,55.99
2017-03-29T07:03:34.038Z,56.09
2017-03-29T07:04:44.016Z,56.18
2017-03-29T07:05:54.062Z,56.09
2017-03-29T07:07:03.644Z,56.28
2017-03-29T07:08:13.297Z,56.28
2017-03-29T07:09:23.351Z,56.28
2017-03-29T07:10:33.225Z,56.4
2017-03-29T07:11:42.167Z,56.21
2017-03-29T07:12:52.206Z,56.02
2017-03-29T07:14:02.137Z,56.31
2017-03-29T07:15:11.408Z,55.93
2017-03-29T07:16:21.601Z,56.02
2017-03-29T07:17:31.553Z,55.93
2017-03-29T07:18:41.688Z,55.35
2017-03-29T07:19:51.593Z,55.26
2017-03-29T07:21:01.216Z,55.16
2017-03-29T07:22:10.735Z,55.54
2017-03-29T07:23:21.008Z,54.88
2017-03-29T07:24:30.888Z,54.59
2017-03-29T07:25:40.515Z,54.68
2017-03-29T07:26:50.152Z,55.16
2017-03-29T07:28:00.409Z,55.07
2017-03-29T07:29:10.329Z,55.45
2017-03-29T07:30:19.967Z,55.26
2017-03-29T07:31:29.560Z,55.16
2017-03-29T07:32:38.860Z,55.07
2017-03-29T07:33:49.066Z,55.35
2017-03-29T07:34:58.783Z,55.45
2017-03-29T07:36:08.750Z,55.83
2017-03-29T07:37:18.691Z,56.4
2017-03-29T07:38:28.637Z,56.21
2017-03-29T07:39:38.490Z,56.02
2017-03-29T07:40:48.470Z,55.83
2017-03-29T07:41:58.462Z,56.21
2017-03-29T07:43:07.788Z,56.31
2017-03-29T07:44:17.714Z,56.31
2017-03-29T07:45:28.005Z,56.12
2017-03-29T07:46:37.923Z,55.54
2017-03-29T07:47:47.634Z,55.74
2017-03-29T07:48:56.956Z,55.54
2017-03-29T07:50:06.928Z,55.16
2017-03-29T07:51:16.774Z,55.45
2017-03-29T07:52:26.679Z,55.16
2017-03-29T07:53:36.286Z,55.16
2017-03-29T07:54:45.932Z,55.16
2017-03-29T07:55:55.566Z,55.26
2017-03-29T07:57:05.121Z,55.07
2017-03-29T07:58:15.166Z,54.9
2017-03-29T07:59:24.796Z,55.19
2017-03-29T08:00:34.724Z,54.8
2017-03-29T08:01:44.345Z,54.9
2017-03-29T08:02:54.657Z,55.19
2017-03-29T08:04:04.663Z,55.67
2017-03-29T08:05:14.710Z,55.07
2017-03-29T08:06:24.302Z,55.16
2017-03-29T08:07:33.899Z,55.26
2017-03-29T08:08:44.118Z,55.35
2017-03-29T08:09:54.070Z,55.26
2017-03-29T08:11:03.975Z,55
2017-03-29T08:12:13.257Z,55.35
2017-03-29T08:13:23.168Z,55.54
2017-03-29T08:14:33.089Z,55.07
2017-03-29T08:15:42.689Z,55.54
2017-03-29T08:16:52.388Z,54.9
2017-03-29T08:18:01.669Z,55.1
2017-03-29T08:19:10.943Z,55.1
2017-03-29T08:20:21.135Z,54.8
2017-03-29T08:21:31.051Z,55.1
2017-03-29T08:22:40.338Z,55.1
2017-03-29T08:23:49.967Z,54.61
2017-03-29T08:24:59.872Z,54.52
2017-03-29T08:26:10.101Z,54.61
2017-03-29T08:27:20.254Z,54.52
2017-03-29T08:28:29.901Z,54.45
2017-03-29T08:29:39.864Z,54.36
2017-03-29T08:30:49.463Z,54.16
2017-03-29T08:31:59.341Z,54.26
2017-03-29T08:33:09.317Z,53.3
2017-03-29T08:34:19.238Z,52.56
2017-03-29T08:35:29.409Z,52.37
2017-03-29T08:36:39.593Z,51.44
2017-03-29T08:37:50.348Z,50.77
2017-03-29T08:39:00.527Z,50.32
2017-03-29T08:40:10.751Z,48.97
2017-03-29T08:41:20.667Z,49.19
2017-03-29T08:42:31.324Z,49.19
2017-03-29T08:43:42.128Z,47.68
2017-03-29T08:44:52.667Z,48.07
2017-03-29T08:46:03.198Z,47.87
2017-03-29T08:47:13.758Z,47.58
2017-03-29T08:48:23.934Z,48.04
2017-03-29T08:49:34.356Z,48.13
2017-03-29T08:50:44.644Z,49.1
2017-03-29T08:51:55.218Z,48.71
2017-03-29T08:53:05.424Z,48.23
2017-03-29T08:54:14.988Z,48.43
2017-03-29T08:55:25.774Z,47.75
2017-03-29T08:56:35.959Z,47.66
2017-03-29T08:57:46.146Z,47.75
2017-03-29T08:58:57.403Z,47.75
2017-03-29T09:00:08.902Z,47.85
2017-03-29T09:01:20.309Z,47.08
2017-03-29T09:02:30.500Z,46.24
2017-03-29T09:03:41.304Z,45.86
2017-03-29T09:04:51.840Z,46.14
2017-03-29T09:06:01.815Z,43.77
2017-03-29T09:07:11.935Z,42.47
2017-03-29T09:08:22.206Z,40.85
2017-03-29T09:09:32.412Z,38.51
2017-03-29T09:10:42.923Z,36.43
2017-03-29T09:11:54.125Z,35.38
2017-03-29T09:13:05.239Z,36.44
2017-03-29T09:14:15.744Z,33.68
2017-03-29T09:15:27.256Z,32.06
2017-03-29T09:16:37.902Z,32.28
2017-03-29T09:17:48.106Z,32.59
2017-03-29T09:18:58.641Z,32.68
2017-03-29T09:20:08.819Z,33.62
2017-03-29T09:21:19.133Z,31.59
2017-03-29T09:22:29.323Z,32.81
2017-03-29T09:23:39.548Z,34.9
2017-03-29T09:24:49.698Z,36.04
2017-03-29T09:26:01.189Z,36.77
2017-03-29T09:27:11.412Z,37.52
2017-03-29T09:28:21.980Z,37.7
2017-03-29T09:29:32.527Z,39.41
2017-03-29T09:30:43.327Z,40.16
2017-03-29T09:31:53.554Z,41
2017-03-29T09:33:03.435Z,41.27
2017-03-29T09:34:13.379Z,42.21
2017-03-29T09:35:22.970Z,42.67
2017-03-29T09:36:33.009Z,43.73
2017-03-29T09:37:42.637Z,44.11
2017-03-29T09:38:52.579Z,44.4
2017-03-29T09:40:02.198Z,44.56
2017-03-29T09:41:11.821Z,45.04
2017-03-29T09:42:21.988Z,45.23
2017-03-29T09:43:31.910Z,45.43
2017-03-29T09:44:41.896Z,45.04
2017-03-29T09:45:51.803Z,45.62
2017-03-29T09:47:01.253Z,45.72
2017-03-29T09:48:11.468Z,46.19
2017-03-29T09:49:21.460Z,45.98
2017-03-29T09:50:31.375Z,46
2017-03-29T09:51:41.032Z,46.1
2017-03-29T09:52:50.958Z,45.81
2017-03-29T09:54:00.879Z,45.62
2017-03-29T09:55:10.877Z,46.29
2017-03-29T09:56:20.842Z,45.9
2017-03-29T09:57:30.863Z,46.29
2017-03-29T09:58:41.142Z,45.9
2017-03-29T09:59:51.537Z,46.22
2017-03-29T10:01:02.098Z,46.12
2017-03-29T10:02:12.287Z,45.93
2017-03-29T10:03:21.940Z,46.03
2017-03-29T10:04:31.861Z,46.03
2017-03-29T10:05:41.710Z,46.03
2017-03-29T10:06:51.301Z,46.31
2017-03-29T10:08:00.929Z,45.93
2017-03-29T10:09:10.900Z,45.74
2017-03-29T10:10:20.528Z,46.1
2017-03-29T10:11:30.085Z,46.86
2017-03-29T10:12:39.998Z,46.96
2017-03-29T10:13:49.991Z,47.63
2017-03-29T10:14:59.924Z,47.63
2017-03-29T10:16:09.852Z,47.73
2017-03-29T10:17:20.055Z,47.53
2017-03-29T10:18:29.977Z,48.3
2017-03-29T10:19:39.584Z,48.11
2017-03-29T10:20:49.487Z,47.99
2017-03-29T10:21:59.417Z,48.38
2017-03-29T10:23:09.280Z,48.38
2017-03-29T10:24:19.203Z,48.38
2017-03-29T10:25:29.131Z,48.38
2017-03-29T10:26:38.731Z,48.66
2017-03-29T10:27:48.634Z,48.75
2017-03-29T10:28:58.981Z,48.66
2017-03-29T10:30:08.743Z,48.66
2017-03-29T10:31:18.690Z,48.38
2017-03-29T10:32:28.883Z,47.82
2017-03-29T10:33:39.383Z,46.41
2017-03-29T10:34:50.139Z,44.23
2017-03-29T10:36:00.042Z,42.83
2017-03-29T10:37:10.685Z,41.14
2017-03-29T10:38:21.274Z,39.24
2017-03-29T10:39:31.500Z,39.36
2017-03-29T10:40:42.296Z,37.16
2017-03-29T10:41:53.767Z,35.94
2017-03-29T10:43:04.317Z,35.75
2017-03-29T10:44:13.967Z,36.23
2017-03-29T10:45:24.524Z,36.71
2017-03-29T10:46:35.290Z,35.85
2017-03-29T10:47:45.950Z,36.51
2017-03-29T10:48:56.585Z,37.37
2017-03-29T10:50:06.875Z,37.81
2017-03-29T10:51:17.434Z,38.49
2017-03-29T10:52:28.322Z,40.01
2017-03-29T10:53:39.479Z,40.76
2017-03-29T10:54:49.979Z,41.12
2017-03-29T10:56:00.517Z,41.77
2017-03-29T10:57:11.054Z,42.35
2017-03-29T10:58:21.979Z,42.9
2017-03-29T10:59:32.153Z,43.48
2017-03-29T11:00:42.655Z,44.51
2017-03-29T11:01:52.880Z,45.09
2017-03-29T11:03:03.454Z,45.47
2017-03-29T11:04:14.903Z,46.14
2017-03-29T11:05:25.445Z,46.03
2017-03-29T11:06:35.401Z,46.05
2017-03-29T11:07:45.373Z,45.93
2017-03-29T11:08:55.010Z,46.89
2017-03-29T11:10:05.181Z,46.98
2017-03-29T11:11:15.087Z,47.46
2017-03-29T11:12:24.687Z,46.98
2017-03-29T11:13:34.748Z,47.75
2017-03-29T11:14:44.343Z,48.02
2017-03-29T11:15:54.613Z,47.63
2017-03-29T11:17:04.531Z,47.92
2017-03-29T11:18:14.185Z,48.21
2017-03-29T11:19:24.110Z,48.78
2017-03-29T11:20:33.750Z,48.88
2017-03-29T11:21:43.994Z,48.78
2017-03-29T11:22:53.389Z,48.88
2017-03-29T11:24:03.360Z,49.07
2017-03-29T11:25:13.370Z,49.74
2017-03-29T11:26:22.984Z,49.07
2017-03-29T11:27:32.864Z,48.69
2017-03-29T11:28:42.854Z,48.78
2017-03-29T11:29:52.838Z,49.16
2017-03-29T11:31:02.477Z,48.97
2017-03-29T11:32:12.431Z,49.07
2017-03-29T11:33:22.703Z,48.97
2017-03-29T11:34:32.656Z,49.07
2017-03-29T11:35:42.577Z,48.88
2017-03-29T11:36:52.500Z,49.36
2017-03-29T11:38:02.414Z,49.36
2017-03-29T11:39:12.031Z,49.36
2017-03-29T11:40:21.665Z,49.26
2017-03-29T11:41:31.616Z,49.65
2017-03-29T11:42:41.540Z,49.55
2017-03-29T11:43:51.463Z,49.55
2017-03-29T11:45:01.663Z,50.03
2017-03-29T11:46:11.250Z,49.36
2017-03-29T11:47:21.210Z,50.32
2017-03-29T11:48:30.540Z,50.79
2017-03-29T11:49:40.523Z,50.2
2017-03-29T11:50:50.726Z,50.29
2017-03-29T11:52:00.651Z,50.03
2017-03-29T11:53:10.643Z,50.67
2017-03-29T11:54:20.226Z,51.28
2017-03-29T11:55:29.830Z,51.34
2017-03-29T11:56:40.040Z,51.25
2017-03-29T11:57:49.961Z,51.54
2017-03-29T11:58:59.320Z,51.54
2017-03-29T12:00:09.281Z,51.25
2017-03-29T12:01:18.558Z,51.46
2017-03-29T12:02:28.808Z,51.85
2017-03-29T12:03:38.827Z,52.4
2017-03-29T12:04:48.433Z,52.11
2017-03-29T12:05:58.432Z,52.59
2017-03-29T12:07:08.026Z,52.3
2017-03-29T12:08:18.191Z,52.69
2017-03-29T12:09:28.362Z,52.5
2017-03-29T12:10:38.267Z,52.78
2017-03-29T12:11:47.866Z,52.4
2017-03-29T12:12:57.809Z,52.87
2017-03-29T12:14:08.057Z,53.45
2017-03-29T12:15:18.010Z,54.12
2017-03-29T12:16:27.645Z,54.99
2017-03-29T12:17:37.074Z,55.08
2017-03-29T12:18:47.028Z,55.46
2017-03-29T12:19:57.292Z,55.94
2017-03-29T12:21:07.313Z,55.75
2017-03-29T12:22:17.250Z,56.32
2017-03-29T12:23:26.972Z,56.23
2017-03-29T12:24:36.896Z,56.61
2017-03-29T12:25:47.041Z,56.39
2017-03-29T12:26:56.673Z,56.77
2017-03-29T12:28:06.600Z,56.42
2017-03-29T12:29:16.501Z,56.81
2017-03-29T12:30:26.461Z,56.87
2017-03-29T12:31:36.832Z,56.97
2017-03-29T12:32:46.765Z,58.22
2017-03-29T12:33:56.376Z,57.73
2017-03-29T12:35:05.964Z,57.67
2017-03-29T12:36:15.235Z,57.26
2017-03-29T12:37:25.415Z,57.19
2017-03-29T12:38:34.710Z,57.48
2017-03-29T12:39:44.624Z,56.99
2017-03-29T12:40:54.552Z,56.81
2017-03-29T12:42:04.574Z,56.52
2017-03-29T12:43:14.747Z,56.99
2017-03-29T12:44:24.658Z,57.19
2017-03-29T12:45:34.244Z,57.19
2017-03-29T12:46:43.932Z,56.81
2017-03-29T12:47:53.566Z,56.81
2017-03-29T12:49:03.093Z,57.19
2017-03-29T12:50:12.692Z,57.19
2017-03-29T12:51:22.311Z,56.9
2017-03-29T12:52:32.346Z,57.28
2017-03-29T12:53:41.620Z,57.09
2017-03-29T12:54:51.781Z,57.28
2017-03-29T12:56:01.396Z,57.19
2017-03-29T12:57:11.372Z,57.28
2017-03-29T12:58:20.652Z,56.81
2017-03-29T12:59:30.612Z,56.52
2017-03-29T13:00:40.508Z,56.52
2017-03-29T13:01:50.152Z,56.52
2017-03-29T13:03:00.147Z,56.32
2017-03-29T13:04:10.102Z,55.94
2017-03-29T13:05:19.771Z,56.52
2017-03-29T13:06:30.095Z,56.61
2017-03-29T13:07:40.111Z,56.71
2017-03-29T13:08:50.025Z,56.26
2017-03-29T13:09:59.640Z,55.58
2017-03-29T13:11:09.641Z,55.49
2017-03-29T13:12:20.097Z,55.01
2017-03-29T13:13:30.028Z,54.91
2017-03-29T13:14:39.955Z,55.11
2017-03-29T13:15:49.577Z,55.18
2017-03-29T13:16:58.856Z,55.01
2017-03-29T13:18:09.074Z,54.63
2017-03-29T13:19:18.717Z,54.32
2017-03-29T13:20:28.698Z,54.24
2017-03-29T13:21:38.354Z,54.72
2017-03-29T13:22:48.362Z,54.44
2017-03-29T13:23:58.638Z,54.34
2017-03-29T13:25:08.646Z,54.05
2017-03-29T13:26:18.577Z,54.24
2017-03-29T13:27:28.543Z,54.34
2017-03-29T13:28:38.547Z,54.05
2017-03-29T13:29:48.709Z,53.93
2017-03-29T13:30:58.695Z,54.12
2017-03-29T13:32:08.320Z,53.67
2017-03-29T13:33:17.952Z,53.96
2017-03-29T13:34:27.224Z,53.77
2017-03-29T13:35:37.062Z,53.77
2017-03-29T13:36:47.004Z,54.05
2017-03-29T13:37:56.908Z,53.96
2017-03-29T13:39:06.982Z,53.38
2017-03-29T13:40:16.812Z,53.38
2017-03-29T13:41:27.103Z,53.38
2017-03-29T13:42:37.050Z,53.58
2017-03-29T13:43:47.106Z,53.19
2017-03-29T13:44:57.039Z,53.28
2017-03-29T13:46:07.022Z,53.96
2017-03-29T13:47:17.341Z,54.63
2017-03-29T13:48:27.261Z,55.08
2017-03-29T13:49:36.533Z,54.79
2017-03-29T13:50:46.479Z,55.18
2017-03-29T13:51:56.094Z,56.13
2017-03-29T13:53:06.314Z,56.13
2017-03-29T13:54:15.916Z,56.61
2017-03-29T13:55:25.928Z,56.13
2017-03-29T13:56:35.935Z,56.23
2017-03-29T13:57:45.557Z,56.9
2017-03-29T13:58:55.511Z,56.99
2017-03-29T14:00:05.427Z,56.9
2017-03-29T14:01:15.355Z,56.42
2017-03-29T14:02:24.954Z,56.81
2017-03-29T14:03:34.586Z,56.42
2017-03-29T14:04:44.763Z,56.61
2017-03-29T14:05:54.678Z,56.42
2017-03-29T14:07:04.670Z,55.58
2017-03-29T14:08:14.285Z,55.3
2017-03-29T14:09:24.312Z,55.21
2017-03-29T14:10:34.503Z,55.3
2017-03-29T14:11:44.456Z,55.78
2017-03-29T14:12:54.372Z,55.4
2017-03-29T14:14:04.413Z,55.3
2017-03-29T14:15:14.067Z,55.11
2017-03-29T14:16:24.239Z,55.21
2017-03-29T14:17:34.197Z,54.91
2017-03-29T14:18:44.113Z,55.3
2017-03-29T14:19:54.134Z,55.4
2017-03-29T14:21:04.082Z,55.94
2017-03-29T14:22:14.295Z,56.32
2017-03-29T14:23:24.249Z,56.99
2017-03-29T14:24:33.872Z,56.52
2017-03-29T14:25:43.789Z,57.19
2017-03-29T14:26:53.716Z,56.9
2017-03-29T14:28:03.698Z,56.99
2017-03-29T14:29:13.878Z,56.81
2017-03-29T14:30:23.526Z,56.42
2017-03-29T14:31:33.468Z,56.9
2017-03-29T14:32:43.411Z,57.38
2017-03-29T14:33:53.616Z,57.28
2017-03-29T14:35:02.581Z,57.19
2017-03-29T14:36:12.510Z,57.19
2017-03-29T14:37:22.495Z,57.28
2017-03-29T14:38:32.558Z,57.19
2017-03-29T14:39:42.403Z,57.57
2017-03-29T14:40:52.317Z,57.38
2017-03-29T14:42:02.232Z,57.76
2017-03-29T14:43:11.837Z,57.48
2017-03-29T14:44:21.794Z,57.86
2017-03-29T14:45:32.068Z,58.72
2017-03-29T14:46:42.022Z,58.72
2017-03-29T14:47:51.616Z,59.2
2017-03-29T14:49:01.221Z,59.48
2017-03-29T14:50:11.228Z,59.11
2017-03-29T14:51:21.155Z,59.39
2017-03-29T14:52:31.076Z,59.94
2017-03-29T14:53:40.722Z,60.35
2017-03-29T14:54:50.705Z,60.7
2017-03-29T14:56:00.648Z,61.18
2017-03-29T14:57:10.816Z,61.66
2017-03-29T14:58:20.464Z,61.47
2017-03-29T14:59:29.820Z,62.14
2017-03-29T15:00:39.788Z,63
2017-03-29T15:01:49.756Z,62.52
2017-03-29T15:02:59.652Z,62.71
2017-03-29T15:04:09.567Z,63